sensor_id;sensor_type;location;lat;lon;timestamp;temperature;humidity
12811;DHT22;6470;47.654;7.896;2023-08-07T00:00:41;10.30;99.90
12811;DHT22;6470;47.654;7.896;2023-08-07T00:03:07;14.50;99.90
12811;DHT22;6470;47.654;7.896;2023-08-07T00:05:32;14.60;99.90
12811;DHT22;6470;47.654;7.896;2023-08-07T00:07:58;12.30;99.90
12811;DHT22;6470;47.654;7.896;2023-08-07T00:10:24;12.00;99.90
12811;DHT22;6470;47.654;7.896;2023-08-07T00:12:50;15.30;99.90
12811;DHT22;6470;47.654;7.896;2023-08-07T00:15:16;12.60;99.90
12811;DHT22;6470;47.654;7.896;2023-08-07T00:17:41;12.50;99.90
12811;DHT22;6470;47.654;7.896;2023-08-07T00:20:08;11.80;99.90
12811;DHT22;6470;47.654;7.896;2023-08-07T00:22:34;15.30;99.90
12811;DHT22;6470;47.654;7.896;2023-08-07T00:25:00;15.20;99.90
12811;DHT22;6470;47.654;7.896;2023-08-07T00:27:26;15.60;99.90
12811;DHT22;6470;47.654;7.896;2023-08-07T00:29:51;12.10;99.90
12811;DHT22;6470;47.654;7.896;2023-08-07T00:44:27;11.70;99.90
12811;DHT22;6470;47.654;7.896;2023-08-07T00:46:54;15.40;99.90
12811;DHT22;6470;47.654;7.896;2023-08-07T00:49:20;12.10;99.90
12811;DHT22;6470;47.654;7.896;2023-08-07T00:51:46;12.20;99.90
12811;DHT22;6470;47.654;7.896;2023-08-07T00:54:15;12.40;99.90
12811;DHT22;6470;47.654;7.896;2023-08-07T00:56:43;12.10;99.90
12811;DHT22;6470;47.654;7.896;2023-08-07T00:59:09;12.20;99.90
12811;DHT22;6470;47.654;7.896;2023-08-07T01:01:35;12.30;99.90
12811;DHT22;6470;47.654;7.896;2023-08-07T01:04:02;11.80;99.90
12811;DHT22;6470;47.654;7.896;2023-08-07T01:06:27;15.30;99.90
12811;DHT22;6470;47.654;7.896;2023-08-07T01:08:53;15.30;99.90
12811;DHT22;6470;47.654;7.896;2023-08-07T01:16:37;11.90;99.90
12811;DHT22;6470;47.654;7.896;2023-08-07T01:19:12;12.30;99.90
12811;DHT22;6470;47.654;7.896;2023-08-07T01:21:46;12.40;99.90
12811;DHT22;6470;47.654;7.896;2023-08-07T01:24:13;12.00;99.90
12811;DHT22;6470;47.654;7.896;2023-08-07T01:26:39;12.80;99.90
12811;DHT22;6470;47.654;7.896;2023-08-07T01:29:23;12.30;99.90
12811;DHT22;6470;47.654;7.896;2023-08-07T01:31:53;12.10;99.90
12811;DHT22;6470;47.654;7.896;2023-08-07T01:34:20;11.90;99.90
12811;DHT22;6470;47.654;7.896;2023-08-07T01:36:48;11.80;99.90
12811;DHT22;6470;47.654;7.896;2023-08-07T01:39:15;12.50;99.90
12811;DHT22;6470;47.654;7.896;2023-08-07T01:44:07;12.30;99.90
12811;DHT22;6470;47.654;7.896;2023-08-07T01:46:33;12.10;99.90
12811;DHT22;6470;47.654;7.896;2023-08-07T01:48:58;11.60;99.90
12811;DHT22;6470;47.654;7.896;2023-08-07T01:51:24;12.30;99.90
12811;DHT22;6470;47.654;7.896;2023-08-07T01:53:50;12.10;99.90
12811;DHT22;6470;47.654;7.896;2023-08-07T01:56:15;15.10;99.90
12811;DHT22;6470;47.654;7.896;2023-08-07T01:58:41;12.50;99.90
12811;DHT22;6470;47.654;7.896;2023-08-07T02:01:07;12.10;99.90
12811;DHT22;6470;47.654;7.896;2023-08-07T02:03:32;11.90;99.90
12811;DHT22;6470;47.654;7.896;2023-08-07T02:05:58;12.40;99.90
12811;DHT22;6470;47.654;7.896;2023-08-07T02:08:24;12.20;99.90
12811;DHT22;6470;47.654;7.896;2023-08-07T02:10:49;12.00;99.90
12811;DHT22;6470;47.654;7.896;2023-08-07T02:15:41;12.30;99.90
12811;DHT22;6470;47.654;7.896;2023-08-07T02:18:07;12.00;99.90
12811;DHT22;6470;47.654;7.896;2023-08-07T02:20:32;15.50;99.90
12811;DHT22;6470;47.654;7.896;2023-08-07T02:27:50;11.70;99.90
12811;DHT22;6470;47.654;7.896;2023-08-07T02:30:16;11.80;99.90
12811;DHT22;6470;47.654;7.896;2023-08-07T02:32:42;12.50;99.90
12811;DHT22;6470;47.654;7.896;2023-08-07T02:35:10;12.00;99.90
12811;DHT22;6470;47.654;7.896;2023-08-07T02:37:36;11.70;99.90
12811;DHT22;6470;47.654;7.896;2023-08-07T02:40:02;12.50;99.90
12811;DHT22;6470;47.654;7.896;2023-08-07T02:42:28;12.40;99.90
12811;DHT22;6470;47.654;7.896;2023-08-07T02:44:53;12.10;99.90
12811;DHT22;6470;47.654;7.896;2023-08-07T02:47:19;12.50;99.90
12811;DHT22;6470;47.654;7.896;2023-08-07T02:49:45;11.70;99.90
12811;DHT22;6470;47.654;7.896;2023-08-07T02:52:10;11.80;99.90
12811;DHT22;6470;47.654;7.896;2023-08-07T02:57:02;10.30;99.90
12811;DHT22;6470;47.654;7.896;2023-08-07T02:59:28;12.60;99.90
12811;DHT22;6470;47.654;7.896;2023-08-07T03:04:19;12.50;99.90
12811;DHT22;6470;47.654;7.896;2023-08-07T03:06:45;12.60;99.90
12811;DHT22;6470;47.654;7.896;2023-08-07T03:09:11;15.10;99.90
12811;DHT22;6470;47.654;7.896;2023-08-07T03:11:36;10.30;99.90
12811;DHT22;6470;47.654;7.896;2023-08-07T03:14:02;11.80;99.90
12811;DHT22;6470;47.654;7.896;2023-08-07T03:16:28;12.30;99.90
12811;DHT22;6470;47.654;7.896;2023-08-07T03:18:54;12.10;99.90
12811;DHT22;6470;47.654;7.896;2023-08-07T03:21:20;12.10;99.90
12811;DHT22;6470;47.654;7.896;2023-08-07T03:23:45;12.10;99.90
12811;DHT22;6470;47.654;7.896;2023-08-07T03:26:12;12.70;99.90
12811;DHT22;6470;47.654;7.896;2023-08-07T03:28:38;12.30;99.90
12811;DHT22;6470;47.654;7.896;2023-08-07T03:31:04;12.30;99.90
12811;DHT22;6470;47.654;7.896;2023-08-07T03:33:30;12.40;99.90
12811;DHT22;6470;47.654;7.896;2023-08-07T03:35:56;15.30;99.90
12811;DHT22;6470;47.654;7.896;2023-08-07T03:38:21;10.20;99.90
12811;DHT22;6470;47.654;7.896;2023-08-07T03:43:13;12.60;99.90
12811;DHT22;6470;47.654;7.896;2023-08-07T03:45:39;12.00;99.90
12811;DHT22;6470;47.654;7.896;2023-08-07T03:48:05;10.50;99.90
12811;DHT22;6470;47.654;7.896;2023-08-07T03:53:00;12.50;99.90
12811;DHT22;6470;47.654;7.896;2023-08-07T03:55:26;10.40;99.90
12811;DHT22;6470;47.654;7.896;2023-08-07T03:57:52;15.50;99.90
12811;DHT22;6470;47.654;7.896;2023-08-07T04:00:17;12.40;99.90
12811;DHT22;6470;47.654;7.896;2023-08-07T04:02:44;11.60;99.90
12811;DHT22;6470;47.654;7.896;2023-08-07T04:05:10;12.10;99.90
12811;DHT22;6470;47.654;7.896;2023-08-07T04:07:36;12.10;99.90
12811;DHT22;6470;47.654;7.896;2023-08-07T04:10:01;10.20;99.90
12811;DHT22;6470;47.654;7.896;2023-08-07T04:12:27;10.20;99.90
12811;DHT22;6470;47.654;7.896;2023-08-07T04:14:53;15.60;99.90
12811;DHT22;6470;47.654;7.896;2023-08-07T04:19:45;15.40;99.90
12811;DHT22;6470;47.654;7.896;2023-08-07T04:22:10;12.10;99.90
12811;DHT22;6470;47.654;7.896;2023-08-07T04:27:02;15.00;99.90
12811;DHT22;6470;47.654;7.896;2023-08-07T04:29:28;12.10;99.90
12811;DHT22;6470;47.654;7.896;2023-08-07T04:31:54;11.00;99.90
12811;DHT22;6470;47.654;7.896;2023-08-07T04:34:19;12.10;99.90
12811;DHT22;6470;47.654;7.896;2023-08-07T04:36:45;15.30;99.90
12811;DHT22;6470;47.654;7.896;2023-08-07T04:39:10;14.50;99.90
12811;DHT22;6470;47.654;7.896;2023-08-07T04:41:39;12.20;99.90
12811;DHT22;6470;47.654;7.896;2023-08-07T04:44:04;15.20;99.90
12811;DHT22;6470;47.654;7.896;2023-08-07T04:48:58;15.20;99.90
12811;DHT22;6470;47.654;7.896;2023-08-07T04:53:51;14.70;99.90
12811;DHT22;6470;47.654;7.896;2023-08-07T04:56:16;12.10;99.90
12811;DHT22;6470;47.654;7.896;2023-08-07T04:58:42;15.10;99.90
12811;DHT22;6470;47.654;7.896;2023-08-07T05:01:08;11.70;99.90
12811;DHT22;6470;47.654;7.896;2023-08-07T05:03:34;15.20;99.90
12811;DHT22;6470;47.654;7.896;2023-08-07T05:06:01;12.60;99.90
12811;DHT22;6470;47.654;7.896;2023-08-07T05:08:27;14.70;99.90
12811;DHT22;6470;47.654;7.896;2023-08-07T05:10:52;11.70;99.90
12811;DHT22;6470;47.654;7.896;2023-08-07T05:13:18;15.00;99.90
12811;DHT22;6470;47.654;7.896;2023-08-07T05:15:47;14.80;99.90
12811;DHT22;6470;47.654;7.896;2023-08-07T05:18:13;14.60;99.90
12811;DHT22;6470;47.654;7.896;2023-08-07T05:20:38;14.80;99.90
12811;DHT22;6470;47.654;7.896;2023-08-07T05:25:30;12.40;99.90
12811;DHT22;6470;47.654;7.896;2023-08-07T05:27:56;12.40;99.90
12811;DHT22;6470;47.654;7.896;2023-08-07T05:32:48;15.40;99.90
12811;DHT22;6470;47.654;7.896;2023-08-07T05:35:13;12.00;99.90
12811;DHT22;6470;47.654;7.896;2023-08-07T05:37:39;15.10;99.90
12811;DHT22;6470;47.654;7.896;2023-08-07T05:40:05;15.60;99.90
12811;DHT22;6470;47.654;7.896;2023-08-07T05:42:31;15.60;99.90
12811;DHT22;6470;47.654;7.896;2023-08-07T05:44:58;12.40;99.90
12811;DHT22;6470;47.654;7.896;2023-08-07T05:47:24;15.00;99.90
12811;DHT22;6470;47.654;7.896;2023-08-07T05:49:49;15.50;99.90
12811;DHT22;6470;47.654;7.896;2023-08-07T05:52:16;15.40;99.90
12811;DHT22;6470;47.654;7.896;2023-08-07T05:54:42;14.70;99.90
12811;DHT22;6470;47.654;7.896;2023-08-07T05:59:34;15.30;99.90
12811;DHT22;6470;47.654;7.896;2023-08-07T06:02:00;15.50;99.90
12811;DHT22;6470;47.654;7.896;2023-08-07T06:04:26;15.60;99.90
12811;DHT22;6470;47.654;7.896;2023-08-07T06:06:51;15.60;99.90
12811;DHT22;6470;47.654;7.896;2023-08-07T06:09:17;15.30;99.90
12811;DHT22;6470;47.654;7.896;2023-08-07T06:11:43;12.70;99.90
12811;DHT22;6470;47.654;7.896;2023-08-07T06:14:09;15.60;99.90
12811;DHT22;6470;47.654;7.896;2023-08-07T06:16:34;15.40;99.90
12811;DHT22;6470;47.654;7.896;2023-08-07T06:21:26;15.90;99.90
12811;DHT22;6470;47.654;7.896;2023-08-07T06:26:20;15.10;99.90
12811;DHT22;6470;47.654;7.896;2023-08-07T06:28:45;14.70;99.90
12811;DHT22;6470;47.654;7.896;2023-08-07T06:31:12;15.40;99.90
12811;DHT22;6470;47.654;7.896;2023-08-07T06:33:38;15.60;99.90
12811;DHT22;6470;47.654;7.896;2023-08-07T06:36:05;15.30;99.90
12811;DHT22;6470;47.654;7.896;2023-08-07T06:38:32;15.30;99.90
12811;DHT22;6470;47.654;7.896;2023-08-07T06:40:57;14.00;99.90
12811;DHT22;6470;47.654;7.896;2023-08-07T06:43:23;15.50;99.90
12811;DHT22;6470;47.654;7.896;2023-08-07T06:45:53;15.90;99.90
12811;DHT22;6470;47.654;7.896;2023-08-07T06:48:19;15.60;99.90
12811;DHT22;6470;47.654;7.896;2023-08-07T06:50:47;15.00;99.90
12811;DHT22;6470;47.654;7.896;2023-08-07T06:55:38;15.70;99.90
12811;DHT22;6470;47.654;7.896;2023-08-07T06:58:06;15.70;99.90
12811;DHT22;6470;47.654;7.896;2023-08-07T07:00:31;15.40;99.90
12811;DHT22;6470;47.654;7.896;2023-08-07T07:02:59;15.80;99.90
12811;DHT22;6470;47.654;7.896;2023-08-07T07:05:24;15.10;99.90
12811;DHT22;6470;47.654;7.896;2023-08-07T07:07:50;15.00;99.90
12811;DHT22;6470;47.654;7.896;2023-08-07T07:10:16;14.80;99.90
12811;DHT22;6470;47.654;7.896;2023-08-07T07:12:42;11.20;99.90
12811;DHT22;6470;47.654;7.896;2023-08-07T07:15:08;15.90;99.90
12811;DHT22;6470;47.654;7.896;2023-08-07T07:17:34;15.20;99.90
12811;DHT22;6470;47.654;7.896;2023-08-07T07:20:00;15.40;99.90
12811;DHT22;6470;47.654;7.896;2023-08-07T07:22:25;15.40;99.90
12811;DHT22;6470;47.654;7.896;2023-08-07T07:24:51;15.30;99.90
12811;DHT22;6470;47.654;7.896;2023-08-07T07:27:17;16.10;99.90
12811;DHT22;6470;47.654;7.896;2023-08-07T07:29:43;15.80;99.90
12811;DHT22;6470;47.654;7.896;2023-08-07T07:32:08;15.80;99.90
12811;DHT22;6470;47.654;7.896;2023-08-07T07:34:34;15.50;99.90
12811;DHT22;6470;47.654;7.896;2023-08-07T07:37:00;15.30;99.90
12811;DHT22;6470;47.654;7.896;2023-08-07T07:39:25;15.50;99.90
12811;DHT22;6470;47.654;7.896;2023-08-07T07:41:51;15.40;99.90
12811;DHT22;6470;47.654;7.896;2023-08-07T07:46:43;15.10;99.90
12811;DHT22;6470;47.654;7.896;2023-08-07T07:51:36;16.30;99.90
12811;DHT22;6470;47.654;7.896;2023-08-07T07:54:02;15.50;99.90
12811;DHT22;6470;47.654;7.896;2023-08-07T07:56:28;15.10;99.90
12811;DHT22;6470;47.654;7.896;2023-08-07T07:58:54;15.30;99.90
12811;DHT22;6470;47.654;7.896;2023-08-07T08:03:46;16.40;99.90
12811;DHT22;6470;47.654;7.896;2023-08-07T08:06:12;15.60;99.90
12811;DHT22;6470;47.654;7.896;2023-08-07T08:08:38;15.40;99.90
12811;DHT22;6470;47.654;7.896;2023-08-07T08:11:03;15.10;99.90
12811;DHT22;6470;47.654;7.896;2023-08-07T08:13:29;11.90;99.90
12811;DHT22;6470;47.654;7.896;2023-08-07T08:15:55;12.00;99.90
12811;DHT22;6470;47.654;7.896;2023-08-07T08:18:21;15.50;99.90
12811;DHT22;6470;47.654;7.896;2023-08-07T08:20:46;15.80;99.90
12811;DHT22;6470;47.654;7.896;2023-08-07T08:23:12;15.50;99.90
12811;DHT22;6470;47.654;7.896;2023-08-07T08:25:38;15.20;99.90
12811;DHT22;6470;47.654;7.896;2023-08-07T08:28:03;14.80;99.90
12811;DHT22;6470;47.654;7.896;2023-08-07T08:30:29;14.80;99.90
12811;DHT22;6470;47.654;7.896;2023-08-07T08:32:55;15.10;99.90
12811;DHT22;6470;47.654;7.896;2023-08-07T08:35:21;15.50;99.90
12811;DHT22;6470;47.654;7.896;2023-08-07T08:37:47;15.10;99.90
12811;DHT22;6470;47.654;7.896;2023-08-07T08:40:13;15.50;99.90
12811;DHT22;6470;47.654;7.896;2023-08-07T08:42:44;15.10;99.90
12811;DHT22;6470;47.654;7.896;2023-08-07T08:45:12;14.70;99.90
12811;DHT22;6470;47.654;7.896;2023-08-07T08:47:42;16.00;99.90
12811;DHT22;6470;47.654;7.896;2023-08-07T08:50:13;15.20;99.90
12811;DHT22;6470;47.654;7.896;2023-08-07T08:52:42;15.60;99.90
12811;DHT22;6470;47.654;7.896;2023-08-07T08:55:10;15.00;99.90
12811;DHT22;6470;47.654;7.896;2023-08-07T08:57:37;15.70;99.90
12811;DHT22;6470;47.654;7.896;2023-08-07T09:00:05;15.10;99.90
12811;DHT22;6470;47.654;7.896;2023-08-07T09:02:44;15.30;99.90
12811;DHT22;6470;47.654;7.896;2023-08-07T09:05:09;15.10;99.90
12811;DHT22;6470;47.654;7.896;2023-08-07T09:07:35;15.80;99.90
12811;DHT22;6470;47.654;7.896;2023-08-07T09:10:03;15.20;99.90
12811;DHT22;6470;47.654;7.896;2023-08-07T09:12:31;12.50;99.90
12811;DHT22;6470;47.654;7.896;2023-08-07T09:14:58;15.30;99.90
12811;DHT22;6470;47.654;7.896;2023-08-07T09:17:26;15.10;99.90
12811;DHT22;6470;47.654;7.896;2023-08-07T09:19:53;15.30;99.90
12811;DHT22;6470;47.654;7.896;2023-08-07T09:22:19;15.60;99.90
12811;DHT22;6470;47.654;7.896;2023-08-07T09:24:45;15.60;99.90
12811;DHT22;6470;47.654;7.896;2023-08-07T09:29:39;15.40;99.90
12811;DHT22;6470;47.654;7.896;2023-08-07T09:32:12;16.20;99.90
12811;DHT22;6470;47.654;7.896;2023-08-07T09:34:41;15.30;99.90
12811;DHT22;6470;47.654;7.896;2023-08-07T09:37:10;15.10;99.90
12811;DHT22;6470;47.654;7.896;2023-08-07T09:39:37;15.20;99.90
12811;DHT22;6470;47.654;7.896;2023-08-07T09:42:04;16.00;99.90
12811;DHT22;6470;47.654;7.896;2023-08-07T09:44:36;16.00;99.90
12811;DHT22;6470;47.654;7.896;2023-08-07T09:47:12;15.40;99.90
12811;DHT22;6470;47.654;7.896;2023-08-07T09:49:38;15.80;99.90
12811;DHT22;6470;47.654;7.896;2023-08-07T09:52:06;15.30;99.90
12811;DHT22;6470;47.654;7.896;2023-08-07T09:54:33;16.20;99.90
12811;DHT22;6470;47.654;7.896;2023-08-07T09:57:01;15.60;99.90
12811;DHT22;6470;47.654;7.896;2023-08-07T10:01:54;16.20;99.90
12811;DHT22;6470;47.654;7.896;2023-08-07T10:04:23;16.10;99.90
12811;DHT22;6470;47.654;7.896;2023-08-07T10:06:51;16.30;99.90
12811;DHT22;6470;47.654;7.896;2023-08-07T10:09:16;16.00;99.90
12811;DHT22;6470;47.654;7.896;2023-08-07T10:11:42;16.70;99.90
12811;DHT22;6470;47.654;7.896;2023-08-07T10:14:08;15.90;99.90
12811;DHT22;6470;47.654;7.896;2023-08-07T10:16:34;16.70;99.90
12811;DHT22;6470;47.654;7.896;2023-08-07T10:19:05;16.20;99.90
12811;DHT22;6470;47.654;7.896;2023-08-07T10:21:34;16.50;99.90
12811;DHT22;6470;47.654;7.896;2023-08-07T10:24:03;16.50;99.90
12811;DHT22;6470;47.654;7.896;2023-08-07T10:26:30;16.30;99.90
12811;DHT22;6470;47.654;7.896;2023-08-07T10:28:59;17.00;99.90
12811;DHT22;6470;47.654;7.896;2023-08-07T10:31:26;16.80;99.90
12811;DHT22;6470;47.654;7.896;2023-08-07T10:33:53;16.60;99.90
12811;DHT22;6470;47.654;7.896;2023-08-07T10:36:19;16.90;99.90
12811;DHT22;6470;47.654;7.896;2023-08-07T10:38:44;17.60;99.90
12811;DHT22;6470;47.654;7.896;2023-08-07T10:41:14;17.20;99.90
12811;DHT22;6470;47.654;7.896;2023-08-07T10:43:43;17.60;99.90
12811;DHT22;6470;47.654;7.896;2023-08-07T10:46:15;18.10;99.90
12811;DHT22;6470;47.654;7.896;2023-08-07T10:49:01;18.10;99.90
12811;DHT22;6470;47.654;7.896;2023-08-07T10:51:29;17.00;99.90
12811;DHT22;6470;47.654;7.896;2023-08-07T10:53:57;17.60;99.90
12811;DHT22;6470;47.654;7.896;2023-08-07T10:56:35;17.40;99.90
12811;DHT22;6470;47.654;7.896;2023-08-07T10:59:10;18.20;99.90
12811;DHT22;6470;47.654;7.896;2023-08-07T11:01:40;18.70;99.90
12811;DHT22;6470;47.654;7.896;2023-08-07T11:04:09;18.80;99.90
12811;DHT22;6470;47.654;7.896;2023-08-07T11:06:38;17.80;99.90
12811;DHT22;6470;47.654;7.896;2023-08-07T11:09:05;17.70;99.90
12811;DHT22;6470;47.654;7.896;2023-08-07T11:11:45;18.10;99.90
12811;DHT22;6470;47.654;7.896;2023-08-07T11:14:20;18.40;99.90
12811;DHT22;6470;47.654;7.896;2023-08-07T11:16:47;19.00;99.90
12811;DHT22;6470;47.654;7.896;2023-08-07T11:19:15;19.10;99.90
12811;DHT22;6470;47.654;7.896;2023-08-07T11:21:42;18.60;99.90
12811;DHT22;6470;47.654;7.896;2023-08-07T11:24:08;18.30;99.90
12811;DHT22;6470;47.654;7.896;2023-08-07T11:31:27;17.60;99.90
12811;DHT22;6470;47.654;7.896;2023-08-07T11:33:55;18.40;99.90
12811;DHT22;6470;47.654;7.896;2023-08-07T11:36:22;17.40;99.90
12811;DHT22;6470;47.654;7.896;2023-08-07T11:38:48;18.10;99.90
12811;DHT22;6470;47.654;7.896;2023-08-07T11:41:15;17.60;99.90
12811;DHT22;6470;47.654;7.896;2023-08-07T11:43:42;17.30;99.90
12811;DHT22;6470;47.654;7.896;2023-08-07T11:46:09;17.80;99.90
12811;DHT22;6470;47.654;7.896;2023-08-07T11:48:37;17.40;99.90
12811;DHT22;6470;47.654;7.896;2023-08-07T11:51:03;17.20;99.90
12811;DHT22;6470;47.654;7.896;2023-08-07T11:53:32;17.70;99.90
12811;DHT22;6470;47.654;7.896;2023-08-07T11:56:00;18.00;99.90
12811;DHT22;6470;47.654;7.896;2023-08-07T11:58:37;18.10;99.90
12811;DHT22;6470;47.654;7.896;2023-08-07T12:01:17;18.20;99.90
12811;DHT22;6470;47.654;7.896;2023-08-07T12:03:51;18.30;99.90
12811;DHT22;6470;47.654;7.896;2023-08-07T12:06:18;18.50;99.90
12811;DHT22;6470;47.654;7.896;2023-08-07T12:08:44;18.20;99.90
12811;DHT22;6470;47.654;7.896;2023-08-07T12:11:13;19.20;99.90
12811;DHT22;6470;47.654;7.896;2023-08-07T12:13:43;19.70;99.90
12811;DHT22;6470;47.654;7.896;2023-08-07T12:16:11;19.60;99.90
12811;DHT22;6470;47.654;7.896;2023-08-07T12:18:48;20.00;99.90
12811;DHT22;6470;47.654;7.896;2023-08-07T12:21:18;20.30;99.90
12811;DHT22;6470;47.654;7.896;2023-08-07T12:23:49;20.00;99.90
12811;DHT22;6470;47.654;7.896;2023-08-07T12:26:16;19.70;99.90
12811;DHT22;6470;47.654;7.896;2023-08-07T12:28:42;19.60;99.90
12811;DHT22;6470;47.654;7.896;2023-08-07T12:31:08;19.00;99.90
12811;DHT22;6470;47.654;7.896;2023-08-07T12:33:34;18.90;99.90
12811;DHT22;6470;47.654;7.896;2023-08-07T12:36:00;18.60;99.90
12811;DHT22;6470;47.654;7.896;2023-08-07T12:38:27;17.90;99.90
12811;DHT22;6470;47.654;7.896;2023-08-07T12:40:53;17.30;99.90
12811;DHT22;6470;47.654;7.896;2023-08-07T12:43:19;16.70;99.90
12811;DHT22;6470;47.654;7.896;2023-08-07T12:45:45;17.60;99.90
12811;DHT22;6470;47.654;7.896;2023-08-07T12:48:11;18.10;99.90
12811;DHT22;6470;47.654;7.896;2023-08-07T12:50:37;18.50;99.90
12811;DHT22;6470;47.654;7.896;2023-08-07T12:53:03;18.60;99.90
12811;DHT22;6470;47.654;7.896;2023-08-07T12:55:29;16.30;99.90
12811;DHT22;6470;47.654;7.896;2023-08-07T12:57:55;19.60;99.90
12811;DHT22;6470;47.654;7.896;2023-08-07T13:00:22;19.60;99.90
12811;DHT22;6470;47.654;7.896;2023-08-07T13:02:50;19.40;99.90
12811;DHT22;6470;47.654;7.896;2023-08-07T13:05:16;20.00;99.90
12811;DHT22;6470;47.654;7.896;2023-08-07T13:07:43;19.90;99.90
12811;DHT22;6470;47.654;7.896;2023-08-07T13:10:12;20.10;99.90
12811;DHT22;6470;47.654;7.896;2023-08-07T13:12:42;19.40;99.90
12811;DHT22;6470;47.654;7.896;2023-08-07T13:15:09;18.20;99.90
12811;DHT22;6470;47.654;7.896;2023-08-07T13:17:36;19.70;99.90
12811;DHT22;6470;47.654;7.896;2023-08-07T13:20:03;19.60;99.90
12811;DHT22;6470;47.654;7.896;2023-08-07T13:22:36;19.30;99.90
12811;DHT22;6470;47.654;7.896;2023-08-07T13:25:02;19.20;99.90
12811;DHT22;6470;47.654;7.896;2023-08-07T13:27:29;19.50;99.90
12811;DHT22;6470;47.654;7.896;2023-08-07T13:29:56;19.00;99.90
12811;DHT22;6470;47.654;7.896;2023-08-07T13:32:21;19.70;99.90
12811;DHT22;6470;47.654;7.896;2023-08-07T13:34:47;20.00;99.90
12811;DHT22;6470;47.654;7.896;2023-08-07T13:37:13;20.10;99.90
12811;DHT22;6470;47.654;7.896;2023-08-07T13:39:40;21.40;99.90
12811;DHT22;6470;47.654;7.896;2023-08-07T13:42:05;20.60;99.90
12811;DHT22;6470;47.654;7.896;2023-08-07T13:44:31;21.50;99.90
12811;DHT22;6470;47.654;7.896;2023-08-07T13:46:57;21.70;99.90
12811;DHT22;6470;47.654;7.896;2023-08-07T13:49:23;21.30;99.90
12811;DHT22;6470;47.654;7.896;2023-08-07T13:51:49;21.30;99.90
12811;DHT22;6470;47.654;7.896;2023-08-07T13:54:15;20.50;99.90
12811;DHT22;6470;47.654;7.896;2023-08-07T13:56:41;21.20;99.90
12811;DHT22;6470;47.654;7.896;2023-08-07T13:59:07;19.80;99.90
12811;DHT22;6470;47.654;7.896;2023-08-07T14:04:01;19.00;99.90
12811;DHT22;6470;47.654;7.896;2023-08-07T14:06:27;18.60;99.90
12811;DHT22;6470;47.654;7.896;2023-08-07T14:11:19;19.50;99.90
12811;DHT22;6470;47.654;7.896;2023-08-07T14:13:45;19.10;99.90
12811;DHT22;6470;47.654;7.896;2023-08-07T14:16:12;17.90;99.90
12811;DHT22;6470;47.654;7.896;2023-08-07T14:23:30;17.60;99.90
12811;DHT22;6470;47.654;7.896;2023-08-07T14:25:56;17.20;99.90
12811;DHT22;6470;47.654;7.896;2023-08-07T14:28:22;17.60;99.90
12811;DHT22;6470;47.654;7.896;2023-08-07T14:33:13;14.30;99.90
12811;DHT22;6470;47.654;7.896;2023-08-07T14:35:39;16.70;99.90
12811;DHT22;6470;47.654;7.896;2023-08-07T14:38:05;17.10;99.90
12811;DHT22;6470;47.654;7.896;2023-08-07T14:40:31;17.80;99.90
12811;DHT22;6470;47.654;7.896;2023-08-07T14:42:56;17.00;99.90
12811;DHT22;6470;47.654;7.896;2023-08-07T14:45:22;17.30;99.90
12811;DHT22;6470;47.654;7.896;2023-08-07T14:47:49;18.40;99.90
12811;DHT22;6470;47.654;7.896;2023-08-07T14:50:15;18.10;99.90
12811;DHT22;6470;47.654;7.896;2023-08-07T14:52:42;19.20;99.90
12811;DHT22;6470;47.654;7.896;2023-08-07T14:55:08;18.90;99.90
12811;DHT22;6470;47.654;7.896;2023-08-07T14:57:34;19.70;99.90
12811;DHT22;6470;47.654;7.896;2023-08-07T14:59:59;19.20;99.90
12811;DHT22;6470;47.654;7.896;2023-08-07T15:02:25;17.80;99.90
12811;DHT22;6470;47.654;7.896;2023-08-07T15:04:51;19.90;99.90
12811;DHT22;6470;47.654;7.896;2023-08-07T15:07:17;18.10;99.90
12811;DHT22;6470;47.654;7.896;2023-08-07T15:09:43;19.20;99.90
12811;DHT22;6470;47.654;7.896;2023-08-07T15:12:09;19.50;99.90
12811;DHT22;6470;47.654;7.896;2023-08-07T15:14:34;18.50;99.90
12811;DHT22;6470;47.654;7.896;2023-08-07T15:17:00;17.80;99.90
12811;DHT22;6470;47.654;7.896;2023-08-07T15:19:27;18.30;99.90
12811;DHT22;6470;47.654;7.896;2023-08-07T15:21:52;19.10;99.90
12811;DHT22;6470;47.654;7.896;2023-08-07T15:24:18;18.60;99.90
12811;DHT22;6470;47.654;7.896;2023-08-07T15:29:11;17.40;99.90
12811;DHT22;6470;47.654;7.896;2023-08-07T15:31:37;17.50;99.90
12811;DHT22;6470;47.654;7.896;2023-08-07T15:34:03;17.50;99.90
12811;DHT22;6470;47.654;7.896;2023-08-07T15:36:28;18.00;99.90
12811;DHT22;6470;47.654;7.896;2023-08-07T15:38:54;18.20;99.90
12811;DHT22;6470;47.654;7.896;2023-08-07T15:41:21;18.40;99.90
12811;DHT22;6470;47.654;7.896;2023-08-07T15:43:47;17.80;99.90
12811;DHT22;6470;47.654;7.896;2023-08-07T15:46:15;15.30;99.90
12811;DHT22;6470;47.654;7.896;2023-08-07T15:48:41;17.90;99.90
12811;DHT22;6470;47.654;7.896;2023-08-07T15:51:07;18.00;99.90
12811;DHT22;6470;47.654;7.896;2023-08-07T15:53:33;15.70;99.90
12811;DHT22;6470;47.654;7.896;2023-08-07T15:55:59;19.00;99.90
12811;DHT22;6470;47.654;7.896;2023-08-07T15:58:25;19.50;99.90
12811;DHT22;6470;47.654;7.896;2023-08-07T16:00:51;19.40;99.90
12811;DHT22;6470;47.654;7.896;2023-08-07T16:03:16;19.00;99.90
12811;DHT22;6470;47.654;7.896;2023-08-07T16:05:43;19.20;99.90
12811;DHT22;6470;47.654;7.896;2023-08-07T16:08:09;19.00;99.90
12811;DHT22;6470;47.654;7.896;2023-08-07T16:10:34;19.30;99.90
12811;DHT22;6470;47.654;7.896;2023-08-07T16:13:00;18.70;99.90
12811;DHT22;6470;47.654;7.896;2023-08-07T16:15:26;19.40;99.90
12811;DHT22;6470;47.654;7.896;2023-08-07T16:17:52;19.90;99.90
12811;DHT22;6470;47.654;7.896;2023-08-07T16:20:18;19.80;99.90
12811;DHT22;6470;47.654;7.896;2023-08-07T16:22:44;16.30;99.90
12811;DHT22;6470;47.654;7.896;2023-08-07T16:25:11;19.20;99.90
12811;DHT22;6470;47.654;7.896;2023-08-07T16:27:38;20.20;99.90
12811;DHT22;6470;47.654;7.896;2023-08-07T16:30:05;19.10;99.90
12811;DHT22;6470;47.654;7.896;2023-08-07T16:32:33;19.60;99.90
12811;DHT22;6470;47.654;7.896;2023-08-07T16:34:58;19.70;99.90
12811;DHT22;6470;47.654;7.896;2023-08-07T16:37:29;20.00;99.90
12811;DHT22;6470;47.654;7.896;2023-08-07T16:39:55;20.60;99.90
12811;DHT22;6470;47.654;7.896;2023-08-07T16:42:21;20.40;99.90
12811;DHT22;6470;47.654;7.896;2023-08-07T16:44:48;20.20;99.90
12811;DHT22;6470;47.654;7.896;2023-08-07T16:47:14;19.30;99.90
12811;DHT22;6470;47.654;7.896;2023-08-07T16:49:40;19.30;99.90
12811;DHT22;6470;47.654;7.896;2023-08-07T16:52:06;19.10;99.90
12811;DHT22;6470;47.654;7.896;2023-08-07T16:54:33;15.80;99.90
12811;DHT22;6470;47.654;7.896;2023-08-07T16:59:25;17.30;99.90
12811;DHT22;6470;47.654;7.896;2023-08-07T17:01:50;18.20;99.90
12811;DHT22;6470;47.654;7.896;2023-08-07T17:04:16;18.70;99.90
12811;DHT22;6470;47.654;7.896;2023-08-07T17:06:42;17.30;99.90
12811;DHT22;6470;47.654;7.896;2023-08-07T17:09:08;18.30;99.90
12811;DHT22;6470;47.654;7.896;2023-08-07T17:11:34;17.80;99.90
12811;DHT22;6470;47.654;7.896;2023-08-07T17:14:00;18.20;99.90
12811;DHT22;6470;47.654;7.896;2023-08-07T17:16:27;18.10;99.90